sensor_id;sensor_type;location;lat;lon;timestamp;P1;durP1;ratioP1;P2;durP2;ratioP2
18929;SDS011;43305;52.186;5.598;2024-02-26T00:00:17;8.65;;;5.25;;
18929;SDS011;43305;52.186;5.598;2024-02-26T00:02:45;10.75;;;5.72;;
18929;SDS011;43305;52.186;5.598;2024-02-26T00:05:14;6.95;;;5.57;;
18929;SDS011;43305;52.186;5.598;2024-02-26T00:07:41;8.73;;;5.72;;
18929;SDS011;43305;52.186;5.598;2024-02-26T00:10:09;8.88;;;5.70;;
18929;SDS011;43305;52.186;5.598;2024-02-26T00:12:36;7.50;;;5.50;;
18929;SDS011;43305;52.186;5.598;2024-02-26T00:15:04;10.10;;;5.80;;
18929;SDS011;43305;52.186;5.598;2024-02-26T00:17:31;9.85;;;5.97;;
18929;SDS011;43305;52.186;5.598;2024-02-26T00:19:58;10.05;;;6.53;;
18929;SDS011;43305;52.186;5.598;2024-02-26T00:22:26;8.43;;;6.07;;
18929;SDS011;43305;52.186;5.598;2024-02-26T00:24:53;8.35;;;6.15;;
18929;SDS011;43305;52.186;5.598;2024-02-26T00:27:21;9.95;;;6.03;;
18929;SDS011;43305;52.186;5.598;2024-02-26T00:29:48;7.53;;;5.90;;
18929;SDS011;43305;52.186;5.598;2024-02-26T00:32:15;10.95;;;6.32;;
18929;SDS011;43305;52.186;5.598;2024-02-26T00:34:43;11.02;;;6.45;;
18929;SDS011;43305;52.186;5.598;2024-02-26T00:37:10;11.23;;;6.60;;
18929;SDS011;43305;52.186;5.598;2024-02-26T00:39:36;8.70;;;6.47;;
18929;SDS011;43305;52.186;5.598;2024-02-26T00:42:04;9.27;;;6.35;;
18929;SDS011;43305;52.186;5.598;2024-02-26T00:44:32;10.82;;;6.53;;
18929;SDS011;43305;52.186;5.598;2024-02-26T00:46:59;8.73;;;6.47;;
18929;SDS011;43305;52.186;5.598;2024-02-26T00:49:27;10.02;;;6.50;;
18929;SDS011;43305;52.186;5.598;2024-02-26T00:51:53;8.35;;;6.47;;
18929;SDS011;43305;52.186;5.598;2024-02-26T00:54:20;11.90;;;6.25;;
18929;SDS011;43305;52.186;5.598;2024-02-26T00:56:47;11.20;;;6.57;;
18929;SDS011;43305;52.186;5.598;2024-02-26T00:59:14;11.80;;;6.57;;
18929;SDS011;43305;52.186;5.598;2024-02-26T01:01:42;10.68;;;6.45;;
18929;SDS011;43305;52.186;5.598;2024-02-26T01:04:09;12.18;;;7.05;;
18929;SDS011;43305;52.186;5.598;2024-02-26T01:06:37;10.13;;;6.95;;
18929;SDS011;43305;52.186;5.598;2024-02-26T01:09:03;10.15;;;6.75;;
18929;SDS011;43305;52.186;5.598;2024-02-26T01:11:30;12.20;;;7.07;;
18929;SDS011;43305;52.186;5.598;2024-02-26T01:13:59;10.63;;;7.68;;
18929;SDS011;43305;52.186;5.598;2024-02-26T01:16:26;12.60;;;7.75;;
18929;SDS011;43305;52.186;5.598;2024-02-26T01:18:55;11.07;;;7.45;;
18929;SDS011;43305;52.186;5.598;2024-02-26T01:21:22;9.68;;;7.28;;
18929;SDS011;43305;52.186;5.598;2024-02-26T01:23:49;10.82;;;7.45;;
18929;SDS011;43305;52.186;5.598;2024-02-26T01:26:15;13.65;;;7.43;;
18929;SDS011;43305;52.186;5.598;2024-02-26T01:28:49;11.93;;;7.13;;
18929;SDS011;43305;52.186;5.598;2024-02-26T01:31:16;13.18;;;7.57;;
18929;SDS011;43305;52.186;5.598;2024-02-26T01:33:46;11.50;;;7.50;;
18929;SDS011;43305;52.186;5.598;2024-02-26T01:36:19;15.50;;;7.78;;
18929;SDS011;43305;52.186;5.598;2024-02-26T01:38:49;12.32;;;7.50;;
18929;SDS011;43305;52.186;5.598;2024-02-26T01:41:16;12.60;;;7.40;;
18929;SDS011;43305;52.186;5.598;2024-02-26T01:43:46;10.77;;;7.70;;
18929;SDS011;43305;52.186;5.598;2024-02-26T01:46:15;11.43;;;7.13;;
18929;SDS011;43305;52.186;5.598;2024-02-26T01:48:46;12.02;;;7.78;;
18929;SDS011;43305;52.186;5.598;2024-02-26T01:51:21;12.10;;;7.88;;
18929;SDS011;43305;52.186;5.598;2024-02-26T01:53:48;11.05;;;7.50;;
18929;SDS011;43305;52.186;5.598;2024-02-26T01:56:15;11.52;;;7.50;;
18929;SDS011;43305;52.186;5.598;2024-02-26T01:58:53;12.20;;;7.15;;
18929;SDS011;43305;52.186;5.598;2024-02-26T02:01:20;12.60;;;7.80;;
18929;SDS011;43305;52.186;5.598;2024-02-26T02:03:48;13.48;;;8.25;;
18929;SDS011;43305;52.186;5.598;2024-02-26T02:06:15;12.35;;;7.90;;
18929;SDS011;43305;52.186;5.598;2024-02-26T02:08:46;11.68;;;7.70;;
18929;SDS011;43305;52.186;5.598;2024-02-26T02:11:15;11.88;;;7.55;;
18929;SDS011;43305;52.186;5.598;2024-02-26T02:13:45;10.77;;;7.10;;
18929;SDS011;43305;52.186;5.598;2024-02-26T02:16:14;10.30;;;7.03;;
18929;SDS011;43305;52.186;5.598;2024-02-26T02:18:44;13.63;;;7.63;;
18929;SDS011;43305;52.186;5.598;2024-02-26T02:21:12;13.07;;;7.57;;
18929;SDS011;43305;52.186;5.598;2024-02-26T02:23:41;12.00;;;7.93;;
18929;SDS011;43305;52.186;5.598;2024-02-26T02:26:11;13.18;;;7.35;;
18929;SDS011;43305;52.186;5.598;2024-02-26T02:28:38;12.13;;;7.00;;
18929;SDS011;43305;52.186;5.598;2024-02-26T02:31:06;10.43;;;7.05;;
18929;SDS011;43305;52.186;5.598;2024-02-26T02:33:34;12.85;;;7.30;;
18929;SDS011;43305;52.186;5.598;2024-02-26T02:36:01;11.13;;;6.90;;
18929;SDS011;43305;52.186;5.598;2024-02-26T02:38:30;10.32;;;7.15;;
18929;SDS011;43305;52.186;5.598;2024-02-26T02:40:59;13.90;;;7.22;;
18929;SDS011;43305;52.186;5.598;2024-02-26T02:43:25;11.90;;;7.30;;
18929;SDS011;43305;52.186;5.598;2024-02-26T02:45:52;12.70;;;7.45;;
18929;SDS011;43305;52.186;5.598;2024-02-26T02:48:19;10.52;;;7.00;;
18929;SDS011;43305;52.186;5.598;2024-02-26T02:50:46;10.73;;;7.10;;
18929;SDS011;43305;52.186;5.598;2024-02-26T02:53:15;12.18;;;7.50;;
18929;SDS011;43305;52.186;5.598;2024-02-26T02:55:46;12.43;;;7.22;;
18929;SDS011;43305;52.186;5.598;2024-02-26T02:58:15;11.95;;;7.70;;
18929;SDS011;43305;52.186;5.598;2024-02-26T03:00:42;13.43;;;7.20;;
18929;SDS011;43305;52.186;5.598;2024-02-26T03:03:08;12.85;;;7.82;;
18929;SDS011;43305;52.186;5.598;2024-02-26T03:05:35;12.30;;;7.70;;
18929;SDS011;43305;52.186;5.598;2024-02-26T03:08:02;11.35;;;7.43;;
18929;SDS011;43305;52.186;5.598;2024-02-26T03:10:29;12.90;;;7.95;;
18929;SDS011;43305;52.186;5.598;2024-02-26T03:13:01;13.38;;;7.65;;
18929;SDS011;43305;52.186;5.598;2024-02-26T03:15:28;13.68;;;8.50;;
18929;SDS011;43305;52.186;5.598;2024-02-26T03:17:55;13.57;;;7.82;;
18929;SDS011;43305;52.186;5.598;2024-02-26T03:20:22;13.25;;;7.90;;
18929;SDS011;43305;52.186;5.598;2024-02-26T03:22:49;13.90;;;8.38;;
18929;SDS011;43305;52.186;5.598;2024-02-26T03:25:16;15.20;;;8.32;;
18929;SDS011;43305;52.186;5.598;2024-02-26T03:27:45;15.15;;;8.30;;
18929;SDS011;43305;52.186;5.598;2024-02-26T03:30:13;15.35;;;8.77;;
18929;SDS011;43305;52.186;5.598;2024-02-26T03:32:40;13.98;;;8.38;;
18929;SDS011;43305;52.186;5.598;2024-02-26T03:35:07;17.73;;;8.90;;
18929;SDS011;43305;52.186;5.598;2024-02-26T03:37:34;14.57;;;8.85;;
18929;SDS011;43305;52.186;5.598;2024-02-26T03:40:01;15.07;;;8.50;;
18929;SDS011;43305;52.186;5.598;2024-02-26T03:42:28;13.48;;;8.32;;
18929;SDS011;43305;52.186;5.598;2024-02-26T03:44:55;15.00;;;8.57;;
18929;SDS011;43305;52.186;5.598;2024-02-26T03:47:23;13.50;;;9.05;;
18929;SDS011;43305;52.186;5.598;2024-02-26T03:49:50;14.60;;;8.95;;
18929;SDS011;43305;52.186;5.598;2024-02-26T03:52:19;13.80;;;8.60;;
18929;SDS011;43305;52.186;5.598;2024-02-26T03:54:46;12.98;;;8.50;;
18929;SDS011;43305;52.186;5.598;2024-02-26T03:57:16;14.57;;;9.00;;
18929;SDS011;43305;52.186;5.598;2024-02-26T03:59:46;14.50;;;8.88;;
18929;SDS011;43305;52.186;5.598;2024-02-26T04:02:15;18.15;;;9.13;;
18929;SDS011;43305;52.186;5.598;2024-02-26T04:04:46;15.35;;;8.95;;
18929;SDS011;43305;52.186;5.598;2024-02-26T04:07:16;13.75;;;8.50;;
18929;SDS011;43305;52.186;5.598;2024-02-26T04:09:46;17.55;;;8.40;;
18929;SDS011;43305;52.186;5.598;2024-02-26T04:12:15;14.05;;;8.73;;
18929;SDS011;43305;52.186;5.598;2024-02-26T04:14:44;13.25;;;8.32;;
18929;SDS011;43305;52.186;5.598;2024-02-26T04:17:11;16.38;;;9.13;;
18929;SDS011;43305;52.186;5.598;2024-02-26T04:19:38;15.05;;;8.68;;
18929;SDS011;43305;52.186;5.598;2024-02-26T04:22:06;14.75;;;8.07;;
18929;SDS011;43305;52.186;5.598;2024-02-26T04:24:36;14.88;;;8.40;;
18929;SDS011;43305;52.186;5.598;2024-02-26T04:27:03;14.63;;;8.73;;
18929;SDS011;43305;52.186;5.598;2024-02-26T04:29:30;14.07;;;8.88;;
18929;SDS011;43305;52.186;5.598;2024-02-26T04:31:58;13.93;;;9.15;;
18929;SDS011;43305;52.186;5.598;2024-02-26T04:34:25;13.95;;;8.75;;
18929;SDS011;43305;52.186;5.598;2024-02-26T04:36:51;13.00;;;8.77;;
18929;SDS011;43305;52.186;5.598;2024-02-26T04:39:20;16.25;;;9.50;;
18929;SDS011;43305;52.186;5.598;2024-02-26T04:41:49;15.95;;;9.20;;
18929;SDS011;43305;52.186;5.598;2024-02-26T04:44:19;13.32;;;8.68;;
18929;SDS011;43305;52.186;5.598;2024-02-26T04:46:46;16.40;;;8.90;;
18929;SDS011;43305;52.186;5.598;2024-02-26T04:49:16;15.70;;;9.02;;
18929;SDS011;43305;52.186;5.598;2024-02-26T04:51:45;14.68;;;8.80;;
18929;SDS011;43305;52.186;5.598;2024-02-26T04:54:14;15.07;;;8.88;;
18929;SDS011;43305;52.186;5.598;2024-02-26T04:56:43;20.17;;;10.88;;
18929;SDS011;43305;52.186;5.598;2024-02-26T04:59:10;17.15;;;10.27;;
18929;SDS011;43305;52.186;5.598;2024-02-26T05:01:37;20.70;;;9.93;;
18929;SDS011;43305;52.186;5.598;2024-02-26T05:04:05;15.25;;;9.65;;
18929;SDS011;43305;52.186;5.598;2024-02-26T05:06:36;14.05;;;9.35;;
18929;SDS011;43305;52.186;5.598;2024-02-26T05:09:03;17.45;;;10.25;;
18929;SDS011;43305;52.186;5.598;2024-02-26T05:11:29;18.65;;;10.30;;
18929;SDS011;43305;52.186;5.598;2024-02-26T05:13:58;16.45;;;9.98;;
18929;SDS011;43305;52.186;5.598;2024-02-26T05:16:25;15.50;;;10.07;;
18929;SDS011;43305;52.186;5.598;2024-02-26T05:18:52;17.10;;;10.25;;
18929;SDS011;43305;52.186;5.598;2024-02-26T05:21:19;16.50;;;10.20;;
18929;SDS011;43305;52.186;5.598;2024-02-26T05:23:45;15.95;;;10.32;;
18929;SDS011;43305;52.186;5.598;2024-02-26T05:26:19;16.85;;;9.80;;
18929;SDS011;43305;52.186;5.598;2024-02-26T05:28:46;17.23;;;10.38;;
18929;SDS011;43305;52.186;5.598;2024-02-26T05:31:19;17.35;;;10.52;;
18929;SDS011;43305;52.186;5.598;2024-02-26T05:33:46;17.15;;;10.85;;
18929;SDS011;43305;52.186;5.598;2024-02-26T05:36:18;20.25;;;11.38;;
18929;SDS011;43305;52.186;5.598;2024-02-26T05:38:49;18.05;;;10.82;;
18929;SDS011;43305;52.186;5.598;2024-02-26T05:41:19;18.73;;;11.02;;
18929;SDS011;43305;52.186;5.598;2024-02-26T05:43:48;19.02;;;10.75;;
18929;SDS011;43305;52.186;5.598;2024-02-26T05:46:19;18.73;;;11.38;;
18929;SDS011;43305;52.186;5.598;2024-02-26T05:48:50;20.25;;;11.07;;
18929;SDS011;43305;52.186;5.598;2024-02-26T05:51:18;18.65;;;11.02;;
18929;SDS011;43305;52.186;5.598;2024-02-26T05:53:45;19.88;;;10.90;;
18929;SDS011;43305;52.186;5.598;2024-02-26T05:56:19;21.77;;;11.25;;
18929;SDS011;43305;52.186;5.598;2024-02-26T05:58:46;20.13;;;11.50;;
18929;SDS011;43305;52.186;5.598;2024-02-26T06:01:15;18.58;;;10.82;;
18929;SDS011;43305;52.186;5.598;2024-02-26T06:03:45;20.25;;;11.20;;
18929;SDS011;43305;52.186;5.598;2024-02-26T06:06:14;19.48;;;11.23;;
18929;SDS011;43305;52.186;5.598;2024-02-26T06:08:41;21.33;;;11.57;;
18929;SDS011;43305;52.186;5.598;2024-02-26T06:11:08;21.13;;;11.30;;
18929;SDS011;43305;52.186;5.598;2024-02-26T06:13:35;21.90;;;11.50;;
18929;SDS011;43305;52.186;5.598;2024-02-26T06:16:02;20.30;;;11.70;;
18929;SDS011;43305;52.186;5.598;2024-02-26T06:18:30;20.58;;;11.77;;
18929;SDS011;43305;52.186;5.598;2024-02-26T06:20:58;21.15;;;11.75;;
18929;SDS011;43305;52.186;5.598;2024-02-26T06:23:25;22.98;;;12.32;;
18929;SDS011;43305;52.186;5.598;2024-02-26T06:25:51;20.52;;;11.73;;
18929;SDS011;43305;52.186;5.598;2024-02-26T06:28:18;22.73;;;12.38;;
18929;SDS011;43305;52.186;5.598;2024-02-26T06:30:45;25.60;;;12.50;;
18929;SDS011;43305;52.186;5.598;2024-02-26T06:33:15;22.45;;;12.35;;
18929;SDS011;43305;52.186;5.598;2024-02-26T06:35:44;28.00;;;12.85;;
18929;SDS011;43305;52.186;5.598;2024-02-26T06:38:12;25.45;;;12.75;;
18929;SDS011;43305;52.186;5.598;2024-02-26T06:40:39;25.63;;;12.70;;
18929;SDS011;43305;52.186;5.598;2024-02-26T06:43:06;24.17;;;12.98;;
18929;SDS011;43305;52.186;5.598;2024-02-26T06:45:33;25.50;;;13.32;;
18929;SDS011;43305;52.186;5.598;2024-02-26T06:47:59;24.98;;;13.05;;
18929;SDS011;43305;52.186;5.598;2024-02-26T06:50:27;24.25;;;12.80;;
18929;SDS011;43305;52.186;5.598;2024-02-26T06:52:54;25.13;;;12.98;;
18929;SDS011;43305;52.186;5.598;2024-02-26T06:55:22;29.70;;;13.93;;
18929;SDS011;43305;52.186;5.598;2024-02-26T06:57:49;27.00;;;13.02;;
18929;SDS011;43305;52.186;5.598;2024-02-26T07:00:16;27.25;;;13.77;;
18929;SDS011;43305;52.186;5.598;2024-02-26T07:02:46;28.42;;;13.82;;
18929;SDS011;43305;52.186;5.598;2024-02-26T07:05:16;28.58;;;13.93;;
18929;SDS011;43305;52.186;5.598;2024-02-26T07:07:46;32.28;;;15.07;;
18929;SDS011;43305;52.186;5.598;2024-02-26T07:10:15;30.25;;;14.35;;
18929;SDS011;43305;52.186;5.598;2024-02-26T07:12:46;27.95;;;14.23;;
18929;SDS011;43305;52.186;5.598;2024-02-26T07:15:16;30.42;;;14.80;;
18929;SDS011;43305;52.186;5.598;2024-02-26T07:17:46;29.70;;;15.02;;
18929;SDS011;43305;52.186;5.598;2024-02-26T07:20:16;31.65;;;15.20;;
18929;SDS011;43305;52.186;5.598;2024-02-26T07:22:44;33.33;;;15.88;;
18929;SDS011;43305;52.186;5.598;2024-02-26T07:25:10;31.13;;;15.85;;
18929;SDS011;43305;52.186;5.598;2024-02-26T07:27:38;33.67;;;16.85;;
18929;SDS011;43305;52.186;5.598;2024-02-26T07:30:08;32.30;;;16.48;;
18929;SDS011;43305;52.186;5.598;2024-02-26T07:32:36;36.95;;;17.17;;
18929;SDS011;43305;52.186;5.598;2024-02-26T07:35:03;35.60;;;17.90;;
18929;SDS011;43305;52.186;5.598;2024-02-26T07:37:31;39.63;;;17.55;;
18929;SDS011;43305;52.186;5.598;2024-02-26T07:39:57;37.42;;;17.98;;
18929;SDS011;43305;52.186;5.598;2024-02-26T07:42:24;37.15;;;19.02;;
18929;SDS011;43305;52.186;5.598;2024-02-26T07:44:51;39.90;;;18.73;;
18929;SDS011;43305;52.186;5.598;2024-02-26T07:47:19;37.20;;;17.95;;
18929;SDS011;43305;52.186;5.598;2024-02-26T07:49:46;37.30;;;18.83;;
18929;SDS011;43305;52.186;5.598;2024-02-26T07:52:16;37.15;;;18.77;;
18929;SDS011;43305;52.186;5.598;2024-02-26T07:54:45;34.13;;;17.83;;
18929;SDS011;43305;52.186;5.598;2024-02-26T07:57:12;35.63;;;18.20;;
18929;SDS011;43305;52.186;5.598;2024-02-26T07:59:41;31.25;;;16.67;;
18929;SDS011;43305;52.186;5.598;2024-02-26T08:02:09;38.10;;;18.23;;
18929;SDS011;43305;52.186;5.598;2024-02-26T08:04:38;31.50;;;16.90;;
18929;SDS011;43305;52.186;5.598;2024-02-26T08:07:05;35.35;;;17.80;;
18929;SDS011;43305;52.186;5.598;2024-02-26T08:09:32;30.35;;;16.63;;
18929;SDS011;43305;52.186;5.598;2024-02-26T08:11:59;30.92;;;16.52;;
18929;SDS011;43305;52.186;5.598;2024-02-26T08:14:26;33.70;;;15.90;;
18929;SDS011;43305;52.186;5.598;2024-02-26T08:16:53;34.33;;;16.88;;
18929;SDS011;43305;52.186;5.598;2024-02-26T08:19:20;28.95;;;15.30;;
18929;SDS011;43305;52.186;5.598;2024-02-26T08:21:49;27.98;;;15.25;;
18929;SDS011;43305;52.186;5.598;2024-02-26T08:24:16;26.17;;;13.93;;
18929;SDS011;43305;52.186;5.598;2024-02-26T08:26:52;22.73;;;12.95;;
18929;SDS011;43305;52.186;5.598;2024-02-26T08:29:19;25.92;;;13.68;;
18929;SDS011;43305;52.186;5.598;2024-02-26T08:31:46;22.38;;;12.88;;
18929;SDS011;43305;52.186;5.598;2024-02-26T08:34:15;21.25;;;12.38;;
18929;SDS011;43305;52.186;5.598;2024-02-26T08:36:44;20.90;;;12.60;;
18929;SDS011;43305;52.186;5.598;2024-02-26T08:39:12;24.33;;;12.85;;
18929;SDS011;43305;52.186;5.598;2024-02-26T08:41:39;22.15;;;12.32;;
18929;SDS011;43305;52.186;5.598;2024-02-26T08:44:06;22.80;;;12.65;;
18929;SDS011;43305;52.186;5.598;2024-02-26T08:46:33;19.92;;;11.88;;
18929;SDS011;43305;52.186;5.598;2024-02-26T08:48:59;17.50;;;10.73;;
18929;SDS011;43305;52.186;5.598;2024-02-26T08:51:26;20.90;;;11.15;;
18929;SDS011;43305;52.186;5.598;2024-02-26T08:53:53;19.10;;;10.95;;
18929;SDS011;43305;52.186;5.598;2024-02-26T08:56:21;21.45;;;10.95;;
18929;SDS011;43305;52.186;5.598;2024-02-26T08:58:48;18.25;;;10.07;;
18929;SDS011;43305;52.186;5.598;2024-02-26T09:01:18;18.13;;;10.10;;
18929;SDS011;43305;52.186;5.598;2024-02-26T09:03:45;18.83;;;9.98;;
18929;SDS011;43305;52.186;5.598;2024-02-26T09:06:15;16.40;;;9.95;;
18929;SDS011;43305;52.186;5.598;2024-02-26T09:08:45;16.92;;;10.00;;
18929;SDS011;43305;52.186;5.598;2024-02-26T09:11:21;17.92;;;10.48;;
18929;SDS011;43305;52.186;5.598;2024-02-26T09:13:49;17.85;;;9.57;;
18929;SDS011;43305;52.186;5.598;2024-02-26T09:16:19;17.83;;;9.60;;
18929;SDS011;43305;52.186;5.598;2024-02-26T09:18:46;17.15;;;9.95;;
18929;SDS011;43305;52.186;5.598;2024-02-26T09:21:16;15.43;;;9.55;;
18929;SDS011;43305;52.186;5.598;2024-02-26T09:23:48;16.50;;;10.20;;
18929;SDS011;43305;52.186;5.598;2024-02-26T09:26:14;15.60;;;8.75;;
18929;SDS011;43305;52.186;5.598;2024-02-26T09:28:45;17.60;;;10.00;;
18929;SDS011;43305;52.186;5.598;2024-02-26T09:31:14;15.35;;;9.20;;
18929;SDS011;43305;52.186;5.598;2024-02-26T09:33:44;14.05;;;8.65;;
18929;SDS011;43305;52.186;5.598;2024-02-26T09:36:10;13.93;;;8.20;;
18929;SDS011;43305;52.186;5.598;2024-02-26T09:38:36;13.93;;;8.55;;
18929;SDS011;43305;52.186;5.598;2024-02-26T09:41:05;15.25;;;8.50;;
18929;SDS011;43305;52.186;5.598;2024-02-26T09:43:33;14.55;;;8.38;;
18929;SDS011;43305;52.186;5.598;2024-02-26T09:46:02;15.13;;;7.97;;
18929;SDS011;43305;52.186;5.598;2024-02-26T09:48:30;15.18;;;8.27;;
18929;SDS011;43305;52.186;5.598;2024-02-26T09:51:01;15.77;;;8.00;;
18929;SDS011;43305;52.186;5.598;2024-02-26T09:53:29;13.75;;;7.78;;
18929;SDS011;43305;52.186;5.598;2024-02-26T09:55:56;16.08;;;8.68;;
18929;SDS011;43305;52.186;5.598;2024-02-26T09:58:23;12.73;;;7.57;;
18929;SDS011;43305;52.186;5.598;2024-02-26T10:00:51;13.70;;;8.00;;
18929;SDS011;43305;52.186;5.598;2024-02-26T10:03:27;14.65;;;8.40;;
18929;SDS011;43305;52.186;5.598;2024-02-26T10:06:01;12.88;;;7.68;;
18929;SDS011;43305;52.186;5.598;2024-02-26T10:08:30;15.18;;;7.88;;
18929;SDS011;43305;52.186;5.598;2024-02-26T10:10:58;14.77;;;7.70;;
18929;SDS011;43305;52.186;5.598;2024-02-26T10:13:28;14.43;;;8.48;;
18929;SDS011;43305;52.186;5.598;2024-02-26T10:15:55;13.13;;;7.43;;
18929;SDS011;43305;52.186;5.598;2024-02-26T10:18:22;12.65;;;7.50;;
18929;SDS011;43305;52.186;5.598;2024-02-26T10:20:59;14.32;;;7.63;;
18929;SDS011;43305;52.186;5.598;2024-02-26T10:23:27;14.25;;;7.70;;
18929;SDS011;43305;52.186;5.598;2024-02-26T10:25:54;12.40;;;7.35;;
18929;SDS011;43305;52.186;5.598;2024-02-26T10:28:23;15.15;;;7.05;;
18929;SDS011;43305;52.186;5.598;2024-02-26T10:30:51;13.43;;;7.53;;
18929;SDS011;43305;52.186;5.598;2024-02-26T10:33:18;14.63;;;7.78;;
18929;SDS011;43305;52.186;5.598;2024-02-26T10:35:45;13.98;;;7.57;;
18929;SDS011;43305;52.186;5.598;2024-02-26T10:38:14;12.75;;;7.05;;
18929;SDS011;43305;52.186;5.598;2024-02-26T10:40:45;12.15;;;7.28;;
18929;SDS011;43305;52.186;5.598;2024-02-26T10:43:14;12.68;;;7.00;;
18929;SDS011;43305;52.186;5.598;2024-02-26T10:45:43;12.20;;;6.75;;
18929;SDS011;43305;52.186;5.598;2024-02-26T10:48:13;11.40;;;6.97;;
18929;SDS011;43305;52.186;5.598;2024-02-26T10:50:42;11.30;;;6.65;;
18929;SDS011;43305;52.186;5.598;2024-02-26T10:53:12;12.25;;;6.95;;
18929;SDS011;43305;52.186;5.598;2024-02-26T10:55:48;12.27;;;7.38;;
18929;SDS011;43305;52.186;5.598;2024-02-26T10:58:21;13.57;;;7.10;;
18929;SDS011;43305;52.186;5.598;2024-02-26T11:00:50;11.75;;;6.95;;
18929;SDS011;43305;52.186;5.598;2024-02-26T11:03:18;12.10;;;7.32;;
18929;SDS011;43305;52.186;5.598;2024-02-26T11:05:46;14.18;;;7.13;;
18929;SDS011;43305;52.186;5.598;2024-02-26T11:08:16;13.48;;;7.32;;
18929;SDS011;43305;52.186;5.598;2024-02-26T11:10:46;11.95;;;6.82;;
18929;SDS011;43305;52.186;5.598;2024-02-26T11:13:19;11.90;;;6.93;;
18929;SDS011;43305;52.186;5.598;2024-02-26T11:15:50;15.90;;;9.32;;
18929;SDS011;43305;52.186;5.598;2024-02-26T11:18:19;15.70;;;7.82;;
18929;SDS011;43305;52.186;5.598;2024-02-26T11:20:48;13.48;;;7.78;;
18929;SDS011;43305;52.186;5.598;2024-02-26T11:23:18;15.00;;;8.77;;
18929;SDS011;43305;52.186;5.598;2024-02-26T11:25:45;18.73;;;9.30;;
18929;SDS011;43305;52.186;5.598;2024-02-26T11:28:14;15.55;;;8.88;;
18929;SDS011;43305;52.186;5.598;2024-02-26T11:30:44;13.48;;;7.45;;
18929;SDS011;43305;52.186;5.598;2024-02-26T11:33:13;14.02;;;7.95;;
18929;SDS011;43305;52.186;5.598;2024-02-26T11:35:41;11.93;;;7.43;;
18929;SDS011;43305;52.186;5.598;2024-02-26T11:38:08;13.88;;;8.13;;
18929;SDS011;43305;52.186;5.598;2024-02-26T11:40:49;16.95;;;8.43;;
18929;SDS011;43305;52.186;5.598;2024-02-26T11:43:19;13.35;;;7.38;;
18929;SDS011;43305;52.186;5.598;2024-02-26T11:45:50;13.00;;;7.70;;
18929;SDS011;43305;52.186;5.598;2024-02-26T11:48:21;15.85;;;8.43;;
18929;SDS011;43305;52.186;5.598;2024-02-26T11:50:49;12.98;;;8.10;;
18929;SDS011;43305;52.186;5.598;2024-02-26T11:53:24;15.90;;;8.25;;
18929;SDS011;43305;52.186;5.598;2024-02-26T11:58:57;12.65;;;7.80;;
18929;SDS011;43305;52.186;5.598;2024-02-26T12:01:40;13.85;;;8.23;;
18929;SDS011;43305;52.186;5.598;2024-02-26T12:04:11;13.13;;;7.85;;
18929;SDS011;43305;52.186;5.598;2024-02-26T12:06:41;12.57;;;7.60;;
18929;SDS011;43305;52.186;5.598;2024-02-26T12:09:12;13.02;;;7.15;;
18929;SDS011;43305;52.186;5.598;2024-02-26T12:11:39;11.73;;;7.18;;
18929;SDS011;43305;52.186;5.598;2024-02-26T12:14:08;13.75;;;6.75;;
18929;SDS011;43305;52.186;5.598;2024-02-26T12:16:36;12.55;;;7.30;;
18929;SDS011;43305;52.186;5.598;2024-02-26T12:19:04;13.00;;;7.63;;
18929;SDS011;43305;52.186;5.598;2024-02-26T12:21:33;14.63;;;7.68;;
18929;SDS011;43305;52.186;5.598;2024-02-26T12:24:07;13.02;;;8.57;;
18929;SDS011;43305;52.186;5.598;2024-02-26T12:26:38;13.90;;;8.30;;
18929;SDS011;43305;52.186;5.598;2024-02-26T12:29:05;11.95;;;7.07;;
18929;SDS011;43305;52.186;5.598;2024-02-26T12:31:36;12.27;;;7.85;;
18929;SDS011;43305;52.186;5.598;2024-02-26T12:34:04;14.90;;;7.97;;
18929;SDS011;43305;52.186;5.598;2024-02-26T12:36:31;12.60;;;7.60;;
18929;SDS011;43305;52.186;5.598;2024-02-26T12:39:01;12.48;;;7.50;;
18929;SDS011;43305;52.186;5.598;2024-02-26T12:41:33;12.60;;;7.93;;
18929;SDS011;43305;52.186;5.598;2024-02-26T12:44:01;11.73;;;7.40;;
18929;SDS011;43305;52.186;5.598;2024-02-26T12:46:28;12.68;;;7.70;;
18929;SDS011;43305;52.186;5.598;2024-02-26T12:48:55;12.18;;;7.40;;
18929;SDS011;43305;52.186;5.598;2024-02-26T12:51:23;13.15;;;7.57;;
18929;SDS011;43305;52.186;5.598;2024-02-26T12:53:51;12.48;;;7.55;;
18929;SDS011;43305;52.186;5.598;2024-02-26T12:56:19;11.60;;;7.53;;
18929;SDS011;43305;52.186;5.598;2024-02-26T12:58:48;13.40;;;7.55;;
18929;SDS011;43305;52.186;5.598;2024-02-26T13:01:22;11.32;;;7.20;;
18929;SDS011;43305;52.186;5.598;2024-02-26T13:03:50;11.85;;;7.28;;
18929;SDS011;43305;52.186;5.598;2024-02-26T13:06:18;14.13;;;8.50;;
18929;SDS011;43305;52.186;5.598;2024-02-26T13:08:49;12.05;;;6.68;;
18929;SDS011;43305;52.186;5.598;2024-02-26T13:11:23;14.20;;;6.93;;
18929;SDS011;43305;52.186;5.598;2024-02-26T13:13:51;11.50;;;7.28;;
18929;SDS011;43305;52.186;5.598;2024-02-26T13:16:18;15.15;;;9.10;;
18929;SDS011;43305;52.186;5.598;2024-02-26T13:18:45;14.10;;;8.40;;
18929;SDS011;43305;52.186;5.598;2024-02-26T13:21:13;11.05;;;7.07;;
18929;SDS011;43305;52.186;5.598;2024-02-26T13:23:41;14.10;;;8.00;;
18929;SDS011;43305;52.186;5.598;2024-02-26T13:26:11;11.63;;;7.32;;
18929;SDS011;43305;52.186;5.598;2024-02-26T13:28:39;17.30;;;9.10;;
18929;SDS011;43305;52.186;5.598;2024-02-26T13:31:08;14.27;;;8.30;;
18929;SDS011;43305;52.186;5.598;2024-02-26T13:33:35;21.63;;;10.80;;
18929;SDS011;43305;52.186;5.598;2024-02-26T13:36:02;14.40;;;8.43;;
18929;SDS011;43305;52.186;5.598;2024-02-26T13:38:30;12.27;;;7.30;;
18929;SDS011;43305;52.186;5.598;2024-02-26T13:40:57;14.80;;;8.02;;
18929;SDS011;43305;52.186;5.598;2024-02-26T13:43:24;11.80;;;7.47;;
18929;SDS011;43305;52.186;5.598;2024-02-26T13:45:49;11.45;;;6.60;;
18929;SDS011;43305;52.186;5.598;2024-02-26T13:48:21;14.70;;;8.20;;
18929;SDS011;43305;52.186;5.598;2024-02-26T13:50:48;12.70;;;7.72;;
18929;SDS011;43305;52.186;5.598;2024-02-26T13:53:14;12.45;;;7.40;;
18929;SDS011;43305;52.186;5.598;2024-02-26T13:55:41;20.67;;;10.23;;
18929;SDS011;43305;52.186;5.598;2024-02-26T13:58:08;15.95;;;8.25;;
18929;SDS011;43305;52.186;5.598;2024-02-26T14:00:39;11.63;;;7.13;;
18929;SDS011;43305;52.186;5.598;2024-02-26T14:03:06;10.65;;;6.07;;
18929;SDS011;43305;52.186;5.598;2024-02-26T14:05:35;10.93;;;6.53;;
18929;SDS011;43305;52.186;5.598;2024-02-26T14:08:02;11.65;;;6.65;;
18929;SDS011;43305;52.186;5.598;2024-02-26T14:10:29;11.88;;;6.55;;
18929;SDS011;43305;52.186;5.598;2024-02-26T14:12:56;17.00;;;8.85;;
18929;SDS011;43305;52.186;5.598;2024-02-26T14:15:23;18.60;;;8.88;;
18929;SDS011;43305;52.186;5.598;2024-02-26T14:17:50;14.80;;;7.38;;
18929;SDS011;43305;52.186;5.598;2024-02-26T14:20:21;12.10;;;6.72;;
18929;SDS011;43305;52.186;5.598;2024-02-26T14:22:50;15.20;;;7.80;;
18929;SDS011;43305;52.186;5.598;2024-02-26T14:25:18;9.50;;;5.60;;
18929;SDS011;43305;52.186;5.598;2024-02-26T14:27:45;10.85;;;6.32;;
18929;SDS011;43305;52.186;5.598;2024-02-26T14:30:15;15.13;;;7.38;;
18929;SDS011;43305;52.186;5.598;2024-02-26T14:32:44;8.00;;;5.20;;
18929;SDS011;43305;52.186;5.598;2024-02-26T14:35:11;11.40;;;6.20;;
18929;SDS011;43305;52.186;5.598;2024-02-26T14:37:38;13.88;;;6.38;;
18929;SDS011;43305;52.186;5.598;2024-02-26T14:40:07;10.40;;;5.47;;